createdAt,value
2023-03-06T00:00:23.245Z,26.43
2023-03-06T00:02:45.471Z,19.27
2023-03-06T00:04:48.336Z,23.00
2023-03-06T00:06:51.687Z,20.37
2023-03-06T00:08:54.663Z,22.87
2023-03-06T00:10:57.575Z,20.13
2023-03-06T00:13:06.288Z,18.50
2023-03-06T00:15:09.377Z,23.03
2023-03-06T00:17:11.865Z,18.60
2023-03-06T00:19:13.961Z,19.27
2023-03-06T00:21:16.344Z,19.67
2023-03-06T00:23:18.654Z,17.43
2023-03-06T00:25:21.962Z,18.93
2023-03-06T00:27:26.456Z,21.37
2023-03-06T00:29:28.836Z,21.83
2023-03-06T00:31:31.066Z,26.47
2023-03-06T00:33:33.476Z,20.87
2023-03-06T00:35:35.856Z,19.57
2023-03-06T00:37:38.976Z,23.67
2023-03-06T00:39:41.118Z,19.67
2023-03-06T00:41:45.429Z,23.20
2023-03-06T00:43:48.993Z,22.17
2023-03-06T00:45:51.525Z,21.47
2023-03-06T00:47:53.686Z,25.03
2023-03-06T00:49:56.105Z,23.70
2023-03-06T00:51:58.268Z,20.50
2023-03-06T00:54:00.699Z,23.90
2023-03-06T00:56:02.917Z,24.57
2023-03-06T00:58:05.307Z,21.83
2023-03-06T01:00:08.156Z,21.10
2023-03-06T01:02:11.101Z,24.30
2023-03-06T01:04:13.435Z,27.50
2023-03-06T01:06:15.788Z,24.13
2023-03-06T01:08:17.894Z,25.17
2023-03-06T01:10:20.425Z,21.47
2023-03-06T01:12:23.564Z,22.97
2023-03-06T01:14:26.396Z,25.37
2023-03-06T01:16:29.306Z,24.83
2023-03-06T01:18:31.837Z,23.87
2023-03-06T01:20:34.197Z,21.23
2023-03-06T01:22:36.696Z,25.37
2023-03-06T01:24:39.179Z,22.57
2023-03-06T01:26:41.521Z,24.67
2023-03-06T01:28:44.241Z,23.27
2023-03-06T01:30:46.624Z,24.43
2023-03-06T01:32:48.953Z,24.63
2023-03-06T01:34:51.403Z,28.93
2023-03-06T01:36:53.472Z,24.17
2023-03-06T01:38:56.271Z,25.77
2023-03-06T01:40:58.502Z,27.87
2023-03-06T01:43:12.102Z,31.33
2023-03-06T01:45:14.140Z,27.57
2023-03-06T01:47:19.549Z,27.33
2023-03-06T01:49:40.130Z,26.83
2023-03-06T01:51:48.174Z,26.80
2023-03-06T01:53:51.986Z,27.03
2023-03-06T01:55:55.226Z,24.90
2023-03-06T01:58:00.456Z,24.23
2023-03-06T02:00:12.697Z,24.17
2023-03-06T02:02:16.093Z,23.93
2023-03-06T02:04:19.156Z,25.33
2023-03-06T02:06:22.000Z,26.67
2023-03-06T02:08:24.868Z,21.87
2023-03-06T02:10:26.974Z,23.50
2023-03-06T02:12:29.774Z,24.43
2023-03-06T02:14:32.243Z,19.47
2023-03-06T02:16:35.052Z,24.77
2023-03-06T02:18:38.277Z,24.60
2023-03-06T02:20:48.714Z,20.80
2023-03-06T02:23:11.968Z,24.47
2023-03-06T02:25:26.505Z,23.63
2023-03-06T02:27:29.051Z,22.87
2023-03-06T02:29:32.264Z,24.23
2023-03-06T02:31:35.610Z,27.10
2023-03-06T02:33:38.035Z,22.57
2023-03-06T02:35:43.901Z,25.57
2023-03-06T02:37:47.196Z,26.57
2023-03-06T02:39:57.364Z,28.90
2023-03-06T02:41:59.743Z,29.20
2023-03-06T02:44:01.829Z,26.47
2023-03-06T02:46:04.686Z,31.30
2023-03-06T02:48:07.145Z,32.77
2023-03-06T02:50:10.440Z,33.70
2023-03-06T02:52:12.538Z,31.63
2023-03-06T02:54:15.044Z,29.27
2023-03-06T02:56:19.353Z,38.73
2023-03-06T02:58:21.831Z,30.83
2023-03-06T03:00:24.194Z,29.53
2023-03-06T03:02:26.743Z,34.77
2023-03-06T03:04:28.936Z,36.43
2023-03-06T03:06:31.288Z,25.10
2023-03-06T03:08:34.662Z,27.60
2023-03-06T03:10:37.201Z,35.10
2023-03-06T03:12:39.450Z,28.93
2023-03-06T03:14:42.025Z,33.87
2023-03-06T03:16:45.554Z,24.67
2023-03-06T03:18:48.210Z,27.37
2023-03-06T03:20:50.327Z,24.43
2023-03-06T03:22:55.536Z,24.67
2023-03-06T03:24:57.713Z,27.33
2023-03-06T03:27:00.118Z,21.10
2023-03-06T03:29:04.248Z,26.53
2023-03-06T03:31:09.114Z,26.33
2023-03-06T03:33:11.919Z,27.13
2023-03-06T03:35:14.507Z,31.40
2023-03-06T03:37:16.689Z,31.53
2023-03-06T03:39:19.885Z,29.60
2023-03-06T03:41:22.001Z,30.13
2023-03-06T03:43:24.726Z,28.67
2023-03-06T03:45:26.976Z,30.93
2023-03-06T03:47:29.359Z,27.77
2023-03-06T03:49:31.765Z,28.77
2023-03-06T03:51:34.251Z,29.37
2023-03-06T03:53:36.485Z,28.07
2023-03-06T03:55:38.852Z,29.17
2023-03-06T03:57:41.431Z,26.80
2023-03-06T03:59:43.776Z,28.77
2023-03-06T04:01:46.136Z,29.30
2023-03-06T04:03:48.562Z,22.43
2023-03-06T04:05:54.001Z,28.77
2023-03-06T04:07:56.476Z,26.13
2023-03-06T04:09:58.527Z,25.83
2023-03-06T04:12:00.984Z,24.63
2023-03-06T04:14:03.535Z,25.93
2023-03-06T04:16:06.473Z,29.97
2023-03-06T04:18:08.652Z,29.50
2023-03-06T04:20:11.677Z,24.47
2023-03-06T04:22:13.856Z,24.47
2023-03-06T04:24:19.267Z,26.37
2023-03-06T04:26:21.386Z,23.40
2023-03-06T04:28:24.122Z,24.83
2023-03-06T04:30:26.357Z,25.97
2023-03-06T04:32:28.811Z,22.40
2023-03-06T04:34:30.981Z,25.10
2023-03-06T04:36:34.734Z,21.30
2023-03-06T04:38:37.044Z,25.03
2023-03-06T04:40:39.893Z,25.53
2023-03-06T04:42:42.163Z,20.13
2023-03-06T04:44:46.147Z,22.43
2023-03-06T04:46:48.414Z,26.73
2023-03-06T04:48:50.882Z,20.00
2023-03-06T04:50:53.150Z,23.27
2023-03-06T04:52:56.028Z,22.90
2023-03-06T04:54:58.610Z,23.60
2023-03-06T04:57:01.732Z,19.17
2023-03-06T04:59:04.775Z,21.07
2023-03-06T05:01:07.804Z,22.13
2023-03-06T05:03:17.573Z,21.03
2023-03-06T05:07:22.506Z,19.50
2023-03-06T05:09:25.330Z,20.47
2023-03-06T05:11:28.110Z,15.37
2023-03-06T05:13:30.907Z,15.73
2023-03-06T05:15:33.216Z,20.87
2023-03-06T05:17:35.933Z,26.13
2023-03-06T05:19:38.401Z,29.83
2023-03-06T05:21:40.771Z,28.00
2023-03-06T05:23:42.862Z,25.13
2023-03-06T05:25:45.561Z,23.30
2023-03-06T05:27:47.891Z,26.90
2023-03-06T05:29:50.467Z,19.63
2023-03-06T05:31:52.604Z,24.17
2023-03-06T05:33:55.339Z,22.53
2023-03-06T05:35:57.719Z,22.07
2023-03-06T05:38:00.201Z,24.40
2023-03-06T05:40:06.367Z,19.03
2023-03-06T05:42:08.739Z,21.30
2023-03-06T05:44:11.032Z,17.10
2023-03-06T05:46:13.681Z,17.10
2023-03-06T05:48:18.867Z,16.80
2023-03-06T05:50:21.531Z,17.57
2023-03-06T05:52:23.893Z,19.67
2023-03-06T05:54:26.804Z,18.95
2023-03-06T05:56:29.467Z,16.98
2023-03-06T05:58:33.570Z,16.33
2023-03-06T06:00:36.137Z,14.27
2023-03-06T06:02:38.627Z,17.88
2023-03-06T06:04:41.194Z,15.95
2023-03-06T06:06:43.989Z,16.10
2023-03-06T06:08:46.445Z,18.23
2023-03-06T06:10:50.443Z,17.40
2023-03-06T06:12:54.658Z,18.17
2023-03-06T06:14:57.174Z,17.77
2023-03-06T06:16:59.622Z,17.42
2023-03-06T06:19:02.384Z,16.90
2023-03-06T06:21:09.466Z,17.05
2023-03-06T06:23:12.382Z,17.67
2023-03-06T06:25:14.463Z,15.85
2023-03-06T06:27:17.908Z,13.50
2023-03-06T06:29:20.519Z,17.17
2023-03-06T06:31:23.377Z,19.98
2023-03-06T06:33:26.203Z,12.70
2023-03-06T06:35:28.600Z,14.00
2023-03-06T06:37:31.397Z,14.45
2023-03-06T06:39:34.166Z,14.77
2023-03-06T06:41:53.657Z,15.93
2023-03-06T06:43:59.220Z,11.98
2023-03-06T06:46:23.090Z,15.13
2023-03-06T06:48:24.097Z,15.27
2023-03-06T06:50:26.551Z,16.52
2023-03-06T06:52:29.044Z,16.90
2023-03-06T06:54:31.126Z,18.30
2023-03-06T06:56:33.561Z,13.27
2023-03-06T06:58:35.754Z,14.13
2023-03-06T07:00:38.097Z,14.50
2023-03-06T07:02:40.195Z,15.43
2023-03-06T07:04:56.497Z,16.00
2023-03-06T07:07:06.918Z,11.32
2023-03-06T07:09:10.780Z,15.63
2023-03-06T07:11:15.748Z,17.15
2023-03-06T07:13:18.259Z,15.73
2023-03-06T07:15:20.444Z,14.13
2023-03-06T07:17:23.182Z,17.55
2023-03-06T07:19:25.540Z,16.00
2023-03-06T07:21:27.985Z,14.90
2023-03-06T07:23:30.468Z,12.55
2023-03-06T07:25:32.900Z,13.27
2023-03-06T07:27:35.474Z,14.75
2023-03-06T07:29:37.896Z,16.77
2023-03-06T07:31:40.043Z,18.20
2023-03-06T07:33:42.834Z,14.38
2023-03-06T07:35:45.096Z,15.18
2023-03-06T07:37:47.902Z,15.32
2023-03-06T07:39:50.170Z,19.85
2023-03-06T07:41:56.074Z,15.98
2023-03-06T07:43:58.263Z,21.08
2023-03-06T07:46:01.283Z,17.30
2023-03-06T07:48:05.575Z,14.82
2023-03-06T07:50:09.245Z,17.67
2023-03-06T07:52:12.837Z,21.40
2023-03-06T07:54:15.666Z,20.40
2023-03-06T07:56:18.356Z,22.33
2023-03-06T07:58:21.148Z,23.33
2023-03-06T08:00:23.821Z,17.13
2023-03-06T08:02:26.572Z,18.42
2023-03-06T08:04:30.276Z,18.38
2023-03-06T08:06:33.277Z,18.58
2023-03-06T08:08:39.427Z,16.77
2023-03-06T08:10:42.332Z,16.02
2023-03-06T08:12:44.662Z,19.38
2023-03-06T08:14:47.421Z,13.52
2023-03-06T08:16:51.285Z,14.65
2023-03-06T08:18:54.827Z,16.20
2023-03-06T08:21:08.882Z,12.20
2023-03-06T08:23:12.063Z,13.63
2023-03-06T08:25:14.613Z,12.02
2023-03-06T08:27:18.842Z,12.90
2023-03-06T08:29:20.986Z,18.48
2023-03-06T08:31:28.494Z,15.75
2023-03-06T08:33:30.954Z,16.38
2023-03-06T08:35:33.835Z,13.85
2023-03-06T08:37:36.451Z,13.30
2023-03-06T08:39:39.240Z,11.57
2023-03-06T08:41:45.043Z,22.05
2023-03-06T08:43:48.205Z,14.90
2023-03-06T08:45:55.286Z,12.30
2023-03-06T08:47:58.089Z,17.52
2023-03-06T08:50:00.778Z,12.80
2023-03-06T08:52:03.827Z,13.88
2023-03-06T08:54:06.631Z,15.32
2023-03-06T08:56:19.249Z,14.27
2023-03-06T08:58:21.895Z,13.85
2023-03-06T09:00:25.159Z,15.15
2023-03-06T09:02:27.496Z,17.50
2023-03-06T09:04:31.302Z,17.17
2023-03-06T09:06:36.027Z,15.50
2023-03-06T09:08:42.966Z,14.70
2023-03-06T09:10:48.954Z,17.73
2023-03-06T09:12:54.741Z,15.32
2023-03-06T09:14:57.420Z,15.13
2023-03-06T09:17:00.214Z,16.95
2023-03-06T09:19:02.766Z,18.77
2023-03-06T09:21:05.814Z,14.95
2023-03-06T09:23:08.269Z,14.88
2023-03-06T09:25:13.292Z,12.52
2023-03-06T09:27:18.079Z,14.23
2023-03-06T09:29:20.660Z,14.60
2023-03-06T09:31:24.995Z,14.15
2023-03-06T09:33:28.809Z,14.73
2023-03-06T09:35:31.278Z,14.02
2023-03-06T09:37:34.034Z,19.50
2023-03-06T09:39:36.928Z,13.95
2023-03-06T09:41:42.398Z,15.57
2023-03-06T09:43:51.666Z,16.98
2023-03-06T09:45:54.319Z,15.20
2023-03-06T09:48:07.801Z,15.45
2023-03-06T09:50:17.061Z,15.77
2023-03-06T09:52:31.501Z,15.55
2023-03-06T09:54:39.707Z,13.95
2023-03-06T09:56:49.200Z,19.42
2023-03-06T09:58:56.823Z,18.55
2023-03-06T10:01:30.294Z,14.55
2023-03-06T10:03:35.934Z,16.48
2023-03-06T10:05:47.052Z,13.85
2023-03-06T10:07:57.087Z,14.55
2023-03-06T10:10:05.245Z,14.75
2023-03-06T10:12:29.236Z,15.55
2023-03-06T10:14:44.012Z,17.90
2023-03-06T10:16:46.893Z,23.35
2023-03-06T10:18:49.179Z,16.65
2023-03-06T10:21:18.503Z,17.63
2023-03-06T10:23:54.699Z,13.80
2023-03-06T10:26:32.698Z,16.88
2023-03-06T10:28:42.128Z,14.98
2023-03-06T10:30:50.675Z,17.60
2023-03-06T10:32:58.380Z,11.93
2023-03-06T10:35:02.687Z,16.65
2023-03-06T10:37:21.470Z,13.98
2023-03-06T10:39:24.814Z,19.52
2023-03-06T10:41:32.036Z,17.50
2023-03-06T10:43:36.528Z,17.20
2023-03-06T10:45:53.087Z,16.33
2023-03-06T10:48:12.008Z,12.98
2023-03-06T10:50:28.928Z,14.20
2023-03-06T10:52:33.638Z,12.68
2023-03-06T10:54:41.349Z,15.45
2023-03-06T10:56:46.273Z,12.38
2023-03-06T10:58:48.820Z,11.32
2023-03-06T11:01:30.631Z,14.38
2023-03-06T11:03:33.787Z,19.60
2023-03-06T11:05:36.624Z,12.05
2023-03-06T11:07:57.357Z,10.20
2023-03-06T11:10:01.837Z,9.32
2023-03-06T11:12:25.192Z,13.35
2023-03-06T11:14:27.762Z,11.60
2023-03-06T11:16:30.864Z,15.33
2023-03-06T11:18:40.660Z,9.20
2023-03-06T11:20:53.383Z,10.45
2023-03-06T11:22:57.356Z,8.87
2023-03-06T11:24:59.489Z,10.93
2023-03-06T11:27:17.405Z,9.80
2023-03-06T11:29:43.443Z,8.53
2023-03-06T11:32:03.060Z,13.13
2023-03-06T11:34:05.605Z,13.18
2023-03-06T11:36:25.444Z,11.50
2023-03-06T11:38:36.319Z,9.00
2023-03-06T11:41:08.219Z,10.43
2023-03-06T11:43:51.134Z,10.13
2023-03-06T11:46:28.058Z,9.07
2023-03-06T11:48:41.354Z,8.80
2023-03-06T11:50:47.593Z,13.37
2023-03-06T11:53:17.544Z,10.00
2023-03-06T11:55:43.836Z,11.10
2023-03-06T11:57:55.830Z,10.23
2023-03-06T11:59:58.660Z,10.73
2023-03-06T12:02:19.691Z,16.53
2023-03-06T12:04:33.435Z,15.73
2023-03-06T12:06:54.647Z,14.30
2023-03-06T12:09:15.478Z,17.10
2023-03-06T12:11:26.830Z,13.00
2023-03-06T12:14:04.897Z,17.20
2023-03-06T12:16:34.900Z,13.50
2023-03-06T12:18:49.801Z,15.57
2023-03-06T12:20:55.346Z,17.57
2023-03-06T12:23:28.609Z,18.57
2023-03-06T12:25:39.624Z,22.37
2023-03-06T12:28:02.468Z,17.57
2023-03-06T12:30:10.565Z,28.47
2023-03-06T12:32:19.512Z,15.73
2023-03-06T12:34:31.395Z,15.90
2023-03-06T12:36:57.808Z,16.90
2023-03-06T12:39:12.042Z,18.47
2023-03-06T12:41:37.475Z,15.27
2023-03-06T12:43:58.130Z,17.57
2023-03-06T12:46:22.587Z,16.50
2023-03-06T12:48:27.495Z,19.50
2023-03-06T12:50:31.544Z,15.93
2023-03-06T12:52:34.598Z,18.97
2023-03-06T12:54:40.531Z,15.47
2023-03-06T12:56:43.661Z,15.60
2023-03-06T12:58:57.003Z,18.00
2023-03-06T13:01:04.256Z,19.20
2023-03-06T13:03:14.997Z,16.67
2023-03-06T13:05:32.349Z,19.70
2023-03-06T13:07:37.841Z,21.60
2023-03-06T13:10:07.669Z,16.87
2023-03-06T13:14:42.391Z,18.43
2023-03-06T13:16:51.597Z,16.17
2023-03-06T13:19:02.267Z,19.03
2023-03-06T13:21:05.425Z,16.77
2023-03-06T13:23:29.560Z,18.63
2023-03-06T13:25:32.752Z,17.93
2023-03-06T13:28:03.357Z,17.87
2023-03-06T13:30:21.069Z,15.13
2023-03-06T13:32:30.581Z,17.93
2023-03-06T13:34:46.880Z,14.15
2023-03-06T13:36:49.036Z,15.67
2023-03-06T13:38:51.793Z,18.60
2023-03-06T13:41:22.979Z,19.70
2023-03-06T13:43:25.590Z,15.80
2023-03-06T13:45:38.697Z,19.13
2023-03-06T13:48:15.893Z,20.33
2023-03-06T13:50:26.670Z,21.67
2023-03-06T13:52:47.917Z,23.73
2023-03-06T13:55:02.457Z,19.37
2023-03-06T13:57:22.370Z,19.97
2023-03-06T13:59:24.882Z,22.10
2023-03-06T14:01:51.238Z,19.33
2023-03-06T14:04:47.609Z,23.20
2023-03-06T14:07:23.229Z,23.20
2023-03-06T14:09:47.196Z,22.27
2023-03-06T14:11:55.014Z,20.50
2023-03-06T14:13:58.051Z,18.47
2023-03-06T14:16:00.862Z,25.80
2023-03-06T14:18:13.538Z,21.93
2023-03-06T14:20:19.849Z,21.17
2023-03-06T14:22:24.542Z,19.73
2023-03-06T14:24:43.671Z,20.17
2023-03-06T14:26:51.756Z,21.37
2023-03-06T14:28:59.274Z,18.77
2023-03-06T14:31:04.480Z,20.50
2023-03-06T14:33:11.327Z,23.37
2023-03-06T14:35:30.828Z,20.27
2023-03-06T14:37:37.293Z,19.95
2023-03-06T14:39:44.836Z,20.03
2023-03-06T14:41:47.698Z,15.83
2023-03-06T14:43:49.837Z,18.00
2023-03-06T14:46:04.398Z,17.57
2023-03-06T14:48:07.009Z,16.92
2023-03-06T14:50:26.073Z,16.23
2023-03-06T14:52:28.548Z,15.20
2023-03-06T14:54:36.979Z,14.40
2023-03-06T14:56:46.032Z,13.25
2023-03-06T14:58:51.745Z,15.18
2023-03-06T15:00:56.681Z,13.48
2023-03-06T15:02:59.791Z,13.05
2023-03-06T15:05:20.498Z,14.65
2023-03-06T15:07:30.417Z,11.10
2023-03-06T15:09:36.830Z,13.98
2023-03-06T15:11:52.420Z,12.02
2023-03-06T15:14:04.978Z,13.45
2023-03-06T15:16:30.381Z,10.65
2023-03-06T15:18:36.217Z,9.57
2023-03-06T15:20:41.672Z,13.50
2023-03-06T15:22:46.827Z,12.88
2023-03-06T15:24:49.379Z,12.50
2023-03-06T15:26:58.087Z,11.48
2023-03-06T15:29:10.354Z,13.38
2023-03-06T15:31:21.374Z,9.50
2023-03-06T15:33:26.336Z,11.27
2023-03-06T15:35:34.269Z,8.77
2023-03-06T15:37:38.242Z,11.13
2023-03-06T15:39:41.616Z,12.95
2023-03-06T15:41:45.039Z,8.75
2023-03-06T15:43:47.418Z,9.15
2023-03-06T15:45:50.088Z,10.98
2023-03-06T15:47:54.522Z,8.43
2023-03-06T15:49:57.069Z,8.80
2023-03-06T15:51:59.283Z,11.40
2023-03-06T15:54:11.845Z,8.55
2023-03-06T15:56:17.722Z,9.40
2023-03-06T15:58:23.902Z,6.88
2023-03-06T16:00:35.780Z,7.75
2023-03-06T16:02:38.379Z,9.13
2023-03-06T16:04:40.500Z,8.75
2023-03-06T16:06:46.339Z,9.98
2023-03-06T16:08:48.459Z,9.98
2023-03-06T16:10:52.543Z,9.13
2023-03-06T16:13:03.033Z,9.77
2023-03-06T16:15:11.886Z,7.38
2023-03-06T16:17:14.512Z,10.77
2023-03-06T16:19:28.736Z,8.20
2023-03-06T16:21:30.867Z,10.05
2023-03-06T16:23:33.341Z,10.38
2023-03-06T16:25:36.178Z,9.20
2023-03-06T16:27:38.673Z,9.77
2023-03-06T16:29:40.876Z,10.07
2023-03-06T16:31:43.755Z,9.32
2023-03-06T16:33:45.820Z,9.07
2023-03-06T16:35:48.390Z,8.77
2023-03-06T16:37:51.066Z,8.40
2023-03-06T16:39:53.565Z,9.83
2023-03-06T16:41:55.807Z,12.10
2023-03-06T16:43:58.318Z,10.13
2023-03-06T16:46:03.885Z,11.63
2023-03-06T16:48:06.870Z,9.63
2023-03-06T16:50:37.715Z,10.43
2023-03-06T16:52:40.200Z,15.32
2023-03-06T16:54:44.531Z,8.87
2023-03-06T16:56:47.218Z,11.27
2023-03-06T16:58:49.421Z,15.57
2023-03-06T17:00:51.902Z,13.30
2023-03-06T17:02:54.525Z,10.75
2023-03-06T17:04:56.985Z,12.00
2023-03-06T17:06:59.105Z,13.43
2023-03-06T17:09:01.574Z,19.13
2023-03-06T17:11:06.313Z,10.87
2023-03-06T17:13:10.747Z,12.67
2023-03-06T17:15:13.096Z,16.20
2023-03-06T17:17:15.622Z,10.90
2023-03-06T17:19:17.793Z,11.60
2023-03-06T17:21:20.770Z,12.63
2023-03-06T17:23:31.938Z,15.07
2023-03-06T17:25:35.140Z,14.20
2023-03-06T17:27:38.023Z,13.63
2023-03-06T17:29:40.744Z,14.40
2023-03-06T17:31:43.278Z,14.13
2023-03-06T17:33:46.495Z,10.90
2023-03-06T17:35:48.653Z,13.97
2023-03-06T17:37:51.653Z,16.00
2023-03-06T17:39:54.003Z,13.83
2023-03-06T17:41:56.672Z,16.27
2023-03-06T17:43:59.119Z,13.90
2023-03-06T17:46:09.595Z,17.20
2023-03-06T17:50:14.654Z,13.80
2023-03-06T17:52:16.749Z,12.87
2023-03-06T17:54:19.826Z,12.90
2023-03-06T17:56:22.196Z,9.83
2023-03-06T17:58:25.669Z,12.67
2023-03-06T18:00:28.222Z,13.73
2023-03-06T18:02:31.061Z,14.27
2023-03-06T18:04:33.431Z,15.50
2023-03-06T18:06:36.392Z,14.23
2023-03-06T18:08:43.737Z,19.00
2023-03-06T18:10:47.705Z,16.03
2023-03-06T18:12:50.338Z,17.37
2023-03-06T18:14:53.190Z,17.80
2023-03-06T18:16:55.458Z,19.43
2023-03-06T18:18:58.035Z,22.03
2023-03-06T18:21:05.352Z,19.97
2023-03-06T18:23:08.236Z,21.87
2023-03-06T18:25:10.569Z,20.60
2023-03-06T18:27:13.169Z,17.80
2023-03-06T18:29:16.059Z,19.60
2023-03-06T18:31:21.653Z,20.70
2023-03-06T18:33:24.612Z,17.23
2023-03-06T18:35:27.689Z,19.70
2023-03-06T18:37:30.271Z,22.13
2023-03-06T18:39:33.511Z,20.13
2023-03-06T18:41:36.546Z,20.97
2023-03-06T18:43:39.939Z,23.10
2023-03-06T18:45:44.295Z,20.33
2023-03-06T18:47:46.948Z,22.00
2023-03-06T18:49:49.762Z,24.57
2023-03-06T18:51:52.602Z,32.50
2023-03-06T18:53:58.267Z,25.87
2023-03-06T18:56:01.217Z,28.07
2023-03-06T18:58:03.760Z,27.77
2023-03-06T19:00:19.034Z,28.40
2023-03-06T19:02:24.832Z,22.07
2023-03-06T19:04:27.830Z,25.93
2023-03-06T19:06:30.617Z,26.00
2023-03-06T19:08:33.924Z,27.87
2023-03-06T19:10:41.119Z,25.43
2023-03-06T19:12:43.526Z,28.23
2023-03-06T19:14:46.088Z,31.03
2023-03-06T19:16:48.955Z,28.27
2023-03-06T19:18:51.561Z,31.10
2023-03-06T19:20:54.864Z,35.27
2023-03-06T19:22:57.505Z,30.40
2023-03-06T19:25:02.766Z,31.60
2023-03-06T19:27:08.043Z,26.80
2023-03-06T19:29:10.905Z,27.33
2023-03-06T19:31:21.339Z,26.80
2023-03-06T19:33:23.842Z,32.27
2023-03-06T19:35:27.701Z,29.17
2023-03-06T19:37:30.590Z,29.50
2023-03-06T19:39:32.840Z,30.70
2023-03-06T19:41:35.600Z,30.37
2023-03-06T19:43:38.510Z,26.90
2023-03-06T19:45:47.694Z,23.93
2023-03-06T19:47:50.602Z,26.40
2023-03-06T19:49:53.050Z,25.83
2023-03-06T19:51:55.512Z,29.53
2023-03-06T19:53:58.763Z,24.50
2023-03-06T19:56:14.988Z,27.97
2023-03-06T19:58:22.393Z,24.30
2023-03-06T20:00:25.210Z,22.77
2023-03-06T20:02:28.565Z,24.87
2023-03-06T20:04:33.035Z,24.83
2023-03-06T20:06:38.970Z,19.23
2023-03-06T20:08:41.657Z,19.43
2023-03-06T20:10:44.684Z,16.97
2023-03-06T20:12:47.007Z,21.07
2023-03-06T20:14:52.736Z,18.80
2023-03-06T20:16:56.600Z,16.13
2023-03-06T20:19:01.145Z,20.70
2023-03-06T20:21:05.456Z,18.83
2023-03-06T20:23:08.334Z,20.23
2023-03-06T20:25:10.897Z,16.10
2023-03-06T20:27:13.987Z,16.53
2023-03-06T20:29:19.329Z,13.37
2023-03-06T20:31:25.028Z,14.30
2023-03-06T20:33:27.858Z,12.57
2023-03-06T20:35:30.633Z,16.93
2023-03-06T20:37:32.837Z,12.97
2023-03-06T20:39:36.092Z,14.87
2023-03-06T20:41:51.490Z,14.03
2023-03-06T20:43:54.659Z,13.70
2023-03-06T20:45:58.751Z,12.63
2023-03-06T20:48:02.094Z,14.50
2023-03-06T20:50:04.680Z,14.07
2023-03-06T20:52:07.621Z,14.77
2023-03-06T20:54:13.118Z,14.90
2023-03-06T20:56:18.786Z,13.00
2023-03-06T20:58:26.659Z,13.63
2023-03-06T21:00:29.001Z,15.50
2023-03-06T21:02:31.259Z,13.80
2023-03-06T21:04:33.715Z,17.57
2023-03-06T21:06:37.504Z,15.97
2023-03-06T21:08:40.319Z,15.97
2023-03-06T21:10:44.644Z,15.07
2023-03-06T21:12:47.353Z,14.47
2023-03-06T21:14:49.534Z,11.70
2023-03-06T21:16:51.968Z,15.77
2023-03-06T21:18:55.453Z,18.43
2023-03-06T21:20:57.809Z,15.33
2023-03-06T21:23:02.794Z,15.73
2023-03-06T21:25:05.599Z,17.60
2023-03-06T21:27:07.983Z,21.13
2023-03-06T21:29:10.602Z,17.03
2023-03-06T21:31:14.873Z,17.30
2023-03-06T21:33:20.117Z,17.33
2023-03-06T21:35:22.201Z,20.07
2023-03-06T21:37:25.248Z,17.97
2023-03-06T21:39:27.600Z,20.20
2023-03-06T21:41:32.351Z,19.07
2023-03-06T21:43:34.475Z,20.10
2023-03-06T21:45:37.253Z,20.83
2023-03-06T21:47:41.037Z,16.83
2023-03-06T21:49:43.422Z,18.07
2023-03-06T21:51:45.763Z,17.73
2023-03-06T21:53:49.284Z,17.17
2023-03-06T21:55:51.435Z,21.33
2023-03-06T21:57:54.484Z,18.27
2023-03-06T21:59:56.973Z,16.30
2023-03-06T22:02:00.163Z,18.33
2023-03-06T22:04:02.355Z,19.20
2023-03-06T22:06:13.680Z,18.00
2023-03-06T22:08:15.794Z,17.57
2023-03-06T22:10:18.874Z,19.07
2023-03-06T22:12:22.020Z,16.63
2023-03-06T22:14:24.380Z,17.73
2023-03-06T22:16:26.534Z,18.00
2023-03-06T22:18:29.074Z,20.50
2023-03-06T22:20:33.400Z,19.77
2023-03-06T22:22:35.810Z,17.87
2023-03-06T22:24:37.940Z,18.23
2023-03-06T22:26:40.359Z,20.17
2023-03-06T22:28:42.731Z,22.10
2023-03-06T22:30:46.301Z,18.50
2023-03-06T22:32:48.504Z,20.17
2023-03-06T22:34:51.306Z,19.23
2023-03-06T22:36:53.552Z,18.17
2023-03-06T22:38:58.979Z,19.47
2023-03-06T22:41:02.023Z,19.30
2023-03-06T22:43:04.505Z,20.63
2023-03-06T22:45:07.125Z,14.37
2023-03-06T22:47:09.557Z,22.90
2023-03-06T22:49:13.016Z,20.60
2023-03-06T22:51:19.288Z,17.20
2023-03-06T22:53:21.476Z,18.23
2023-03-06T22:55:23.794Z,18.10
2023-03-06T22:57:25.899Z,17.43
2023-03-06T22:59:28.463Z,20.20
2023-03-06T23:01:34.109Z,20.97
2023-03-06T23:03:38.529Z,19.20
2023-03-06T23:05:42.456Z,18.93
2023-03-06T23:07:45.012Z,19.87
2023-03-06T23:09:47.500Z,18.03
2023-03-06T23:11:50.508Z,18.97
2023-03-06T23:13:53.664Z,23.03
2023-03-06T23:15:56.505Z,19.80
2023-03-06T23:17:58.571Z,18.53
2023-03-06T23:20:01.029Z,17.97
2023-03-06T23:22:03.168Z,18.40
2023-03-06T23:24:06.939Z,19.50
2023-03-06T23:26:10.657Z,17.60
2023-03-06T23:28:13.070Z,26.10
2023-03-06T23:30:15.943Z,19.57
2023-03-06T23:32:18.482Z,23.97
2023-03-06T23:34:20.562Z,21.90
2023-03-06T23:36:23.006Z,19.77
2023-03-06T23:38:25.321Z,22.17
2023-03-06T23:40:27.958Z,18.90
2023-03-06T23:42:30.101Z,25.23
2023-03-06T23:44:34.934Z,22.00
2023-03-06T23:46:37.123Z,19.37
2023-03-06T23:48:41.073Z,18.80
2023-03-06T23:50:43.235Z,22.27
2023-03-06T23:52:45.758Z,19.27
2023-03-06T23:54:50.064Z,17.57
2023-03-06T23:56:52.418Z,18.33
2023-03-06T23:58:55.369Z,16.90
